Seacod — DDPW — position and weather

sailwx.info

Track history (hours):
 
Tides and Currents Weather Stations Pressure Air Temp Water Temp Dewpoint Dewpoint Depression Visibility Wind Speed Wind Dir Waves Ship Positions

Seacod

Last reported at 2017-Jun-24 08:24 UTC. Time now 2017-Jun-24 08:57 UTC.
Position N 64°10' W 051°43'.

Length 188 m; draft 9 m.

Type: Ship. MMSI: 218019000.

Date/timePositionNaut miles runAvg speedWind from/ knotsBaromVisibWave heightAir tempDewpointWater temp
2017-Jun-24 08:24N 64°10' W 051°43'0 0.0
2017-Jun-24 08:00N 64°10' W 051°43'0 0.0
2017-Jun-24 07:30N 64°10' W 051°43'0 0.0
2017-Jun-24 07:00N 64°10' W 051°43'0 0.0
2017-Jun-24 06:30N 64°10' W 051°43'0 0.0
2017-Jun-24 06:00N 64°10' W 051°43'0 0.0
2017-Jun-24 05:30N 64°10' W 051°43'0 0.0
2017-Jun-24 05:00N 64°10' W 051°43'0 0.0
2017-Jun-24 04:30N 64°10' W 051°43'0 0.0
2017-Jun-24 04:00N 64°10' W 051°43'0 0.0
2017-Jun-24 03:30N 64°10' W 051°43'0 0.0
2017-Jun-24 03:00N 64°10' W 051°43'0 0.0
2017-Jun-24 02:30N 64°10' W 051°43'0 0.0
2017-Jun-24 02:00N 64°10' W 051°43'0 0.0
2017-Jun-24 01:30N 64°10' W 051°43'0 0.0
2017-Jun-24 01:00N 64°10' W 051°43'0 0.0
2017-Jun-24 00:30N 64°10' W 051°43'0 0.0
2017-Jun-24 00:00N 64°10' W 051°43'0 0.0
2017-Jun-23 23:30N 64°10' W 051°43'0 0.0
2017-Jun-23 23:00N 64°10' W 051°43'0 0.0
2017-Jun-23 22:30N 64°10' W 051°43'0 0.0
2017-Jun-23 22:00N 64°10' W 051°43'0 0.0
2017-Jun-23 21:30N 64°10' W 051°43'0 0.0
2017-Jun-23 21:00N 64°10' W 051°43'0 0.0
2017-Jun-23 20:30N 64°10' W 051°43'0 0.0
2017-Jun-23 20:00N 64°10' W 051°43'0 0.0
2017-Jun-23 19:30N 64°10' W 051°43'1 1.3
2017-Jun-23 19:01N 64°09' W 051°44'2 4.0
2017-Jun-23 18:30N 64°09' W 051°49'510.1
2017-Jun-23 18:01N 64°06' W 051°58'816.2
2017-Jun-23 17:30N 64°02' W 052°15'612.2
2017-Jun-23 17:00N 63°56' W 052°16'714.8
2017-Jun-23 16:30N 63°50' W 052°07'714.8
2017-Jun-23 16:00N 63°44' W 051°58'612.8
2017-Jun-23 15:31N 63°41' W 051°45'6 0.2
2017-Jun-22 05:46N 63°41' W 051°33'1 4.8
2017-Jun-22 05:31N 63°41' W 051°35'3 5.5
2017-Jun-22 04:59N 63°41' W 051°42'4 7.5
2017-Jun-22 04:30N 63°41' W 051°50'0 0.9
2017-Jun-22 04:00N 63°41' W 051°51'0 0.7
2017-Jun-22 03:31N 63°41' W 051°52'3 6.8
2017-Jun-22 03:00N 63°41' W 051°59'3 5.4
2017-Jun-22 02:30N 63°42' W 052°05'0 0.7
2017-Jun-22 02:00N 63°42' W 052°05'0 0.8
2017-Jun-22 01:30N 63°42' W 052°06'0 0.8
2017-Jun-22 01:00N 63°43' W 052°06'0 1.0
2017-Jun-22 00:30N 63°43' W 052°06'1 1.2
2017-Jun-22 00:00N 63°44' W 052°06'1 1.4
2017-Jun-21 23:30N 63°44' W 052°07'1 1.6
2017-Jun-21 23:00N 63°45' W 052°07'1 1.4
2017-Jun-21 22:30N 63°46' W 052°06'2 3.1
2017-Jun-21 22:00N 63°44' W 052°05'1 3.0
2017-Jun-21 21:30N 63°43' W 052°04'1 2.9
2017-Jun-21 21:00N 63°42' W 052°02'1 2.7
2017-Jun-21 20:30N 63°40' W 052°02'0 0.9
2017-Jun-21 20:00N 63°40' W 052°01'1 1.8
2017-Jun-21 19:30N 63°41' W 052°02'1 1.7
2017-Jun-21 19:00N 63°42' W 052°03'1 1.6
2017-Jun-21 18:30N 63°42' W 052°04'1 1.6
2017-Jun-21 18:00N 63°43' W 052°05'1 1.4
2017-Jun-21 17:30N 63°43' W 052°06'1 1.2
2017-Jun-21 17:00N 63°44' W 052°07'0 0.9
2017-Jun-21 16:30N 63°44' W 052°08'0 0.8
2017-Jun-21 16:00N 63°44' W 052°09'0 0.8
2017-Jun-21 15:30N 63°45' W 052°09'0 0.8
2017-Jun-21 15:00N 63°45' W 052°10'0 0.7
2017-Jun-21 14:30N 63°45' W 052°10'1 0.9
2017-Jun-21 13:30N 63°46' W 052°11'1 1.0
2017-Jun-21 13:00N 63°46' W 052°11'1 1.2
2017-Jun-21 12:31N 63°47' W 052°11'1 1.3
2017-Jun-21 12:00N 63°48' W 052°12'1 1.5
2017-Jun-21 11:30N 63°48' W 052°12'1 1.5
2017-Jun-21 11:00N 63°49' W 052°12'2 3.3
2017-Jun-21 10:30N 63°51' W 052°12'2 3.9
2017-Jun-21 10:00N 63°53' W 052°12'0 0.4
2017-Jun-21 09:31N 63°53' W 052°11'2 3.0
2017-Jun-21 09:00N 63°51' W 052°11'2 3.0
2017-Jun-21 08:30N 63°50' W 052°11'2 3.0
2017-Jun-21 08:00N 63°48' W 052°11'1 3.0
2017-Jun-21 07:30N 63°47' W 052°10'2 3.1
2017-Jun-21 07:00N 63°45' W 052°10'2 3.3
2017-Jun-21 06:30N 63°44' W 052°10'2 3.2
2017-Jun-21 06:00N 63°42' W 052°10'2 3.0
2017-Jun-21 05:30N 63°40' W 052°10'1 2.5
2017-Jun-21 05:00N 63°40' W 052°08'1 2.8
2017-Jun-21 04:31N 63°40' W 052°05'1 2.8
2017-Jun-21 04:00N 63°40' W 052°01'1 2.9
2017-Jun-21 03:30N 63°40' W 051°58'1 2.5
2017-Jun-21 03:01N 63°40' W 051°55'1 2.2
2017-Jun-21 02:30N 63°40' W 051°53'1 2.4
2017-Jun-21 02:00N 63°40' W 051°50'1 2.7
2017-Jun-21 01:31N 63°40' W 051°47'4 8.3
2017-Jun-21 01:00N 63°41' W 051°38'2 0.7
2017-Jun-20 21:50N 63°41' W 051°33'1 4.4
2017-Jun-20 21:30N 63°41' W 051°36'3 5.3
2017-Jun-20 21:00N 63°41' W 051°42'611.8
2017-Jun-20 20:30N 63°41' W 051°55'714.8
2017-Jun-20 20:00N 63°48' W 052°03'714.7
2017-Jun-20 19:30N 63°54' W 052°12'713.9
2017-Jun-20 19:00N 64°00' W 052°19'612.8
2017-Jun-20 18:30N 64°04' W 052°07'713.7
2017-Jun-20 18:00N 64°07' W 051°54'612.2
2017-Jun-20 17:30N 64°12' W 051°45'0 0.6
2017-Jun-20 17:00N 64°12' W 051°46'4 8.5
2017-Jun-20 16:30N 64°08' W 051°51'5 9.3
2017-Jun-20 16:00N 64°06' W 051°60'612.6
2017-Jun-20 15:30N 64°03' W 052°12'611.1
2017-Jun-20 15:00N 63°58' W 052°19'1212.3
2017-Jun-20 14:01N 63°46' W 052°18'612.2
2017-Jun-20 13:30N 63°40' W 052°17'612.0
2017-Jun-20 13:00N 63°34' W 052°16'611.8
2017-Jun-20 12:30N 63°28' W 052°15'611.6
2017-Jun-20 12:00N 63°22' W 052°14'  
Track history (hours):
 
Tides and Currents Weather Stations Pressure Air Temp Water Temp Dewpoint Dewpoint Depression Visibility Wind Speed Wind Dir Waves Ship Positions

Seacod

Last reported at 2017-Jun-24 08:24 UTC. Time now 2017-Jun-24 08:57 UTC.
Position N 64°10' W 051°43'.

Length 188 m; draft 9 m.

Type: Ship. MMSI: 218019000.

Date/timePositionNaut miles runAvg speedWind from/ knotsBaromVisibWave heightAir tempDewpointWater temp
2017-Jun-24 08:24N 64°10' W 051°43'0 0.0
2017-Jun-24 08:00N 64°10' W 051°43'0 0.0
2017-Jun-24 07:30N 64°10' W 051°43'0 0.0
2017-Jun-24 07:00N 64°10' W 051°43'0 0.0
2017-Jun-24 06:30N 64°10' W 051°43'0 0.0
2017-Jun-24 06:00N 64°10' W 051°43'0 0.0
2017-Jun-24 05:30N 64°10' W 051°43'0 0.0
2017-Jun-24 05:00N 64°10' W 051°43'0 0.0
2017-Jun-24 04:30N 64°10' W 051°43'0 0.0
2017-Jun-24 04:00N 64°10' W 051°43'0 0.0
2017-Jun-24 03:30N 64°10' W 051°43'0 0.0
2017-Jun-24 03:00N 64°10' W 051°43'0 0.0
2017-Jun-24 02:30N 64°10' W 051°43'0 0.0
2017-Jun-24 02:00N 64°10' W 051°43'0 0.0
2017-Jun-24 01:30N 64°10' W 051°43'0 0.0
2017-Jun-24 01:00N 64°10' W 051°43'0 0.0
2017-Jun-24 00:30N 64°10' W 051°43'0 0.0
2017-Jun-24 00:00N 64°10' W 051°43'0 0.0
2017-Jun-23 23:30N 64°10' W 051°43'0 0.0
2017-Jun-23 23:00N 64°10' W 051°43'0 0.0
2017-Jun-23 22:30N 64°10' W 051°43'0 0.0
2017-Jun-23 22:00N 64°10' W 051°43'0 0.0
2017-Jun-23 21:30N 64°10' W 051°43'0 0.0
2017-Jun-23 21:00N 64°10' W 051°43'0 0.0
2017-Jun-23 20:30N 64°10' W 051°43'0 0.0
2017-Jun-23 20:00N 64°10' W 051°43'0 0.0
2017-Jun-23 19:30N 64°10' W 051°43'1 1.3
2017-Jun-23 19:01N 64°09' W 051°44'2 4.0
2017-Jun-23 18:30N 64°09' W 051°49'510.1
2017-Jun-23 18:01N 64°06' W 051°58'816.2
2017-Jun-23 17:30N 64°02' W 052°15'612.2
2017-Jun-23 17:00N 63°56' W 052°16'714.8
2017-Jun-23 16:30N 63°50' W 052°07'714.8
2017-Jun-23 16:00N 63°44' W 051°58'612.8
2017-Jun-23 15:31N 63°41' W 051°45'6 0.2
2017-Jun-22 05:46N 63°41' W 051°33'1 4.8
2017-Jun-22 05:31N 63°41' W 051°35'3 5.5
2017-Jun-22 04:59N 63°41' W 051°42'4 7.5
2017-Jun-22 04:30N 63°41' W 051°50'0 0.9
2017-Jun-22 04:00N 63°41' W 051°51'0 0.7
2017-Jun-22 03:31N 63°41' W 051°52'3 6.8
2017-Jun-22 03:00N 63°41' W 051°59'3 5.4
2017-Jun-22 02:30N 63°42' W 052°05'0 0.7
2017-Jun-22 02:00N 63°42' W 052°05'0 0.8
2017-Jun-22 01:30N 63°42' W 052°06'0 0.8
2017-Jun-22 01:00N 63°43' W 052°06'0 1.0
2017-Jun-22 00:30N 63°43' W 052°06'1 1.2
2017-Jun-22 00:00N 63°44' W 052°06'1 1.4
2017-Jun-21 23:30N 63°44' W 052°07'1 1.6
2017-Jun-21 23:00N 63°45' W 052°07'1 1.4
2017-Jun-21 22:30N 63°46' W 052°06'2 3.1
2017-Jun-21 22:00N 63°44' W 052°05'1 3.0
2017-Jun-21 21:30N 63°43' W 052°04'1 2.9
2017-Jun-21 21:00N 63°42' W 052°02'1 2.7
2017-Jun-21 20:30N 63°40' W 052°02'0 0.9
2017-Jun-21 20:00N 63°40' W 052°01'1 1.8
2017-Jun-21 19:30N 63°41' W 052°02'1 1.7
2017-Jun-21 19:00N 63°42' W 052°03'1 1.6
2017-Jun-21 18:30N 63°42' W 052°04'1 1.6
2017-Jun-21 18:00N 63°43' W 052°05'1 1.4
2017-Jun-21 17:30N 63°43' W 052°06'1 1.2
2017-Jun-21 17:00N 63°44' W 052°07'0 0.9
2017-Jun-21 16:30N 63°44' W 052°08'0 0.8
2017-Jun-21 16:00N 63°44' W 052°09'0 0.8
2017-Jun-21 15:30N 63°45' W 052°09'0 0.8
2017-Jun-21 15:00N 63°45' W 052°10'0 0.7
2017-Jun-21 14:30N 63°45' W 052°10'1 0.9
2017-Jun-21 13:30N 63°46' W 052°11'1 1.0
2017-Jun-21 13:00N 63°46' W 052°11'1 1.2
2017-Jun-21 12:31N 63°47' W 052°11'1 1.3
2017-Jun-21 12:00N 63°48' W 052°12'1 1.5
2017-Jun-21 11:30N 63°48' W 052°12'1 1.5
2017-Jun-21 11:00N 63°49' W 052°12'2 3.3
2017-Jun-21 10:30N 63°51' W 052°12'2 3.9
2017-Jun-21 10:00N 63°53' W 052°12'0 0.4
2017-Jun-21 09:31N 63°53' W 052°11'2 3.0
2017-Jun-21 09:00N 63°51' W 052°11'2 3.0
2017-Jun-21 08:30N 63°50' W 052°11'2 3.0
2017-Jun-21 08:00N 63°48' W 052°11'1 3.0
2017-Jun-21 07:30N 63°47' W 052°10'2 3.1
2017-Jun-21 07:00N 63°45' W 052°10'2 3.3
2017-Jun-21 06:30N 63°44' W 052°10'2 3.2
2017-Jun-21 06:00N 63°42' W 052°10'2 3.0
2017-Jun-21 05:30N 63°40' W 052°10'1 2.5
2017-Jun-21 05:00N 63°40' W 052°08'1 2.8
2017-Jun-21 04:31N 63°40' W 052°05'1 2.8
2017-Jun-21 04:00N 63°40' W 052°01'1 2.9
2017-Jun-21 03:30N 63°40' W 051°58'1 2.5
2017-Jun-21 03:01N 63°40' W 051°55'1 2.2
2017-Jun-21 02:30N 63°40' W 051°53'1 2.4
2017-Jun-21 02:00N 63°40' W 051°50'1 2.7
2017-Jun-21 01:31N 63°40' W 051°47'4 8.3
2017-Jun-21 01:00N 63°41' W 051°38'2 0.7
2017-Jun-20 21:50N 63°41' W 051°33'1 4.4
2017-Jun-20 21:30N 63°41' W 051°36'3 5.3
2017-Jun-20 21:00N 63°41' W 051°42'611.8
2017-Jun-20 20:30N 63°41' W 051°55'714.8
2017-Jun-20 20:00N 63°48' W 052°03'714.7
2017-Jun-20 19:30N 63°54' W 052°12'713.9
2017-Jun-20 19:00N 64°00' W 052°19'612.8
2017-Jun-20 18:30N 64°04' W 052°07'713.7
2017-Jun-20 18:00N 64°07' W 051°54'612.2
2017-Jun-20 17:30N 64°12' W 051°45'0 0.6
2017-Jun-20 17:00N 64°12' W 051°46'4 8.5
2017-Jun-20 16:30N 64°08' W 051°51'5 9.3
2017-Jun-20 16:00N 64°06' W 051°60'612.6
2017-Jun-20 15:30N 64°03' W 052°12'611.1
2017-Jun-20 15:00N 63°58' W 052°19'1212.3
2017-Jun-20 14:01N 63°46' W 052°18'612.2
2017-Jun-20 13:30N 63°40' W 052°17'612.0
2017-Jun-20 13:00N 63°34' W 052°16'611.8
2017-Jun-20 12:30N 63°28' W 052°15'611.6
2017-Jun-20 12:00N 63°22' W 052°14'  

Dump ship's entire track history